UAAH/BXH METAR and TAF weather

Enter ICAO airport designator
Station Type Date Time Source
UAAH METAR 2019/06/20 07:30 UTC NOAA

UAAH 200730Z 18004MPS 140V220 9999 FEW043 28/M02 Q1013 NOSIG RMK QFE721/0961


Station Type Date Time Source
UAAH Decoded METAR 2019/06/20 07:30 UTC NOAA

Station name not available
Jun 20, 2019 - 03:30 AM EDT / 2019.06.20 0730 UTC
Wind: from the S (180 degrees) at 9 MPH (8 KT) (direction variable):0
Visibility: greater than 7 mile(s):0
Sky conditions: mostly clear
Temperature: 82 F (28 C)
Dew Point: 28 F (-2 C)
Relative Humidity: 13%
Pressure (altimeter): 29.91 in. Hg (1013 hPa)
ob: UAAH 200730Z 18004MPS 140V220 9999 FEW043 28/M02 Q1013 NOSIG RMK QFE721/0961
cycle: 7

Station Type Date Time Source
UAAH TAF 2016/09/21 12:09 UTC NOAA

TAF
AMD TAF
AMD UAAH 211506Z 2112/2124 36006MPS CAVOK

Example: see airport list